Fayville, Illinois
Current Conditions -  °F | °C
As of 3:53 PM on Monday 20 Oct 2014 (Local Time) from KCGI Reporting Station
Clear Clear  
Wind Chill: 23°   Ceiling: Unl
Heat Index: 23°   Visibility: 10mi
Dew Point: 13°   Wind: 10mph
Humidity: 52%   Direction: 220°SW
Pressure: 29.93"   Gusts: NA
Location:  37.1947°N, 89.3961°W
Report Text: KCGI 202053Z 22009KT 10SM CLR 23/13 A2993 RMK AO2 SLP135 T02330128 56020 $
Loading
Personal Weather Stations






























Interactive Weather Map
Tropical Storm Tracking
New forecast layout! Learn more

10-Day Weather Forecast

Advertisements
Track Severe Weather on mobile